Time;durP1;ratioP1;P1;durP2;ratioP2;P2;SDS_P1;SDS_P2;PMS_P1;PMS_P2;Temp;Humidity;BMP_temperature;BMP_pressure;BME280_temperature;BME280_humidity;BME280_pressure;Samples;Min_cycle;Max_cycle;Signal;HPM_P1;HPM_P2
2023/04/26 00:01:41;;;;;;;7.57;6.97;;;10.90;54.20;;;;;;20756;6831;117371;-74
2023/04/26 00:04:07;;;;;;;8.88;8.10;;;10.60;54.70;;;;;;20542;6831;309940;-74
2023/04/26 00:06:33;;;;;;;9.40;8.70;;;10.80;54.10;;;;;;20544;6831;341676;-74
2023/04/26 00:08:58;;;;;;;10.35;9.55;;;11.10;53.20;;;;;;20543;6831;308436;-74
2023/04/26 00:11:23;;;;;;;7.95;7.45;;;11.40;52.80;;;;;;20757;6831;117356;-74
2023/04/26 00:13:49;;;;;;;8.37;7.83;;;11.20;52.90;;;;;;20763;6831;117116;-74
2023/04/26 00:16:17;;;;;;;10.27;9.50;;;10.80;53.60;;;;;;20530;6829;311386;-74
2023/04/26 00:18:42;;;;;;;11.80;10.70;;;10.90;53.80;;;;;;20553;6830;293499;-74
2023/04/26 00:21:08;;;;;;;10.93;10.13;;;11.30;53.10;;;;;;20542;6831;307719;-74
2023/04/26 00:23:35;;;;;;;8.93;8.23;;;11.30;53.00;;;;;;20762;6831;123614;-74
2023/04/26 00:26:00;;;;;;;7.80;7.30;;;11.10;53.30;;;;;;20746;6831;117723;-74
2023/04/26 00:28:26;;;;;;;8.60;7.80;;;10.70;53.90;;;;;;20699;6848;117550;-74
2023/04/26 00:30:51;;;;;;;7.30;6.87;;;10.50;54.70;;;;;;20706;6848;117838;-74
2023/04/26 00:33:17;;;;;;;7.53;6.93;;;10.20;55.10;;;;;;20709;6847;117250;-74
2023/04/26 00:35:43;;;;;;;8.23;7.63;;;10.00;55.50;;;;;;20710;6848;117800;-74
2023/04/26 00:38:08;;;;;;;9.93;9.13;;;9.80;56.90;;;;;;20472;6848;311256;-74
2023/04/26 00:40:34;;;;;;;9.30;8.70;;;10.00;55.50;;;;;;20511;6848;278663;-74
2023/04/26 00:42:59;;;;;;;9.77;9.07;;;10.40;54.50;;;;;;20488;6848;338046;-74
2023/04/26 00:45:25;;;;;;;7.50;6.90;;;10.70;53.50;;;;;;20712;6848;123251;-74
2023/04/26 00:47:51;;;;;;;7.53;7.03;;;10.60;53.60;;;;;;20709;6848;121333;-75
2023/04/26 00:50:17;;;;;;;9.30;8.50;;;10.30;53.80;;;;;;20308;6848;337935;-74
2023/04/26 00:52:43;;;;;;;7.97;7.40;;;10.20;54.60;;;;;;20707;6848;117856;-74
2023/04/26 00:55:09;;;;;;;7.70;7.10;;;10.20;54.00;;;;;;20696;6848;117627;-74
2023/04/26 00:57:36;;;;;;;7.87;6.85;;;9.80;56.10;;;;;;20702;6848;118103;-74
2023/04/26 01:00:03;;;;;;;8.83;8.20;;;9.70;56.00;;;;;;20470;6848;278395;-74
2023/04/26 01:02:29;;;;;;;8.23;7.63;;;9.90;56.10;;;;;;20703;6848;117736;-74
2023/04/26 01:04:54;;;;;;;7.70;6.90;;;9.90;56.00;;;;;;20713;6848;117171;-74
2023/04/26 01:07:20;;;;;;;8.60;7.00;;;9.80;56.50;;;;;;20713;6849;116910;-74
2023/04/26 01:09:46;;;;;;;6.77;6.27;;;9.50;57.00;;;;;;20715;6847;117067;-74
2023/04/26 01:12:12;;;;;;;7.27;6.63;;;9.40;56.90;;;;;;20673;6848;117412;-74
2023/04/26 01:14:38;;;;;;;6.60;6.10;;;9.20;57.30;;;;;;20704;6848;117176;-74
2023/04/26 01:17:04;;;;;;;6.97;6.40;;;9.20;57.30;;;;;;20702;6848;117416;-74
2023/04/26 01:19:29;;;;;;;7.20;6.50;;;9.10;57.50;;;;;;20703;6848;117077;-74
2023/04/26 01:21:56;;;;;;;9.20;8.50;;;9.00;57.60;;;;;;20476;6848;318060;-74
2023/04/26 01:24:22;;;;;;;9.25;8.50;;;9.20;57.00;;;;;;20525;6839;283909;-74
2023/04/26 01:26:47;;;;;;;9.60;8.95;;;9.60;55.70;;;;;;20552;6829;307188;-74
2023/04/26 01:29:13;;;;;;;9.40;8.70;;;9.90;54.80;;;;;;20766;6830;121242;-74
2023/04/26 01:31:38;;;;;;;10.57;9.77;;;9.80;55.00;;;;;;20478;6848;278939;-74
2023/04/26 01:34:04;;;;;;;8.32;7.62;;;9.80;55.00;;;;;;20695;6846;117854;-74
2023/04/26 01:36:29;;;;;;;9.80;9.00;;;9.70;55.20;;;;;;20492;6848;308567;-74
2023/04/26 01:38:55;;;;;;;8.90;8.10;;;9.70;55.10;;;;;;20706;6848;117026;-74
2023/04/26 01:41:21;;;;;;;9.57;8.77;;;9.70;55.40;;;;;;20497;6848;308560;-76
2023/04/26 01:43:46;;;;;;;8.37;7.57;;;9.70;55.20;;;;;;20708;6848;117826;-74
2023/04/26 01:46:12;;;;;;;9.68;8.27;;;9.60;55.40;;;;;;20475;6848;278578;-74
2023/04/26 01:48:37;;;;;;;7.80;7.10;;;9.70;55.40;;;;;;20706;6848;117105;-74
2023/04/26 01:51:04;;;;;;;9.00;8.30;;;9.80;55.10;;;;;;20496;6848;307318;-74
2023/04/26 01:53:29;;;;;;;8.97;8.27;;;9.80;56.50;;;;;;20498;6848;279869;-74
2023/04/26 01:55:55;;;;;;;7.67;6.97;;;10.10;54.10;;;;;;20689;6848;127672;-74
2023/04/26 01:58:21;;;;;;;7.33;6.83;;;9.70;56.00;;;;;;20705;6848;118228;-72
2023/04/26 02:00:47;;;;;;;8.30;7.57;;;9.80;54.80;;;;;;20499;6848;308120;-74
2023/04/26 02:03:13;;;;;;;7.23;6.53;;;9.80;54.80;;;;;;20608;6848;117086;-74
2023/04/26 02:05:38;;;;;;;8.20;7.53;;;9.70;55.00;;;;;;20464;6848;310523;-74
2023/04/26 02:08:05;;;;;;;7.97;7.45;;;9.80;54.10;;;;;;20471;6848;308097;-75
2023/04/26 02:10:30;;;;;;;7.90;7.20;;;10.30;51.40;;;;;;20424;6848;337719;-74
2023/04/26 02:12:56;;;;;;;7.78;7.25;;;10.20;51.30;;;;;;20463;6848;346553;-74
2023/04/26 02:15:22;;;;;;;7.47;6.77;;;10.40;51.10;;;;;;20479;6848;291852;-75
2023/04/26 02:17:48;;;;;;;6.93;6.43;;;10.50;50.60;;;;;;20504;6848;337648;-75
2023/04/26 02:20:13;;;;;;;6.83;6.33;;;10.50;50.80;;;;;;20694;6848;118207;-75
2023/04/26 02:22:39;;;;;;;6.67;5.50;;;9.80;53.20;;;;;;20691;6848;117235;-75
2023/04/26 02:25:05;;;;;;;6.17;5.57;;;9.80;53.20;;;;;;20701;6848;117356;-75
2023/04/26 02:27:31;;;;;;;5.27;4.97;;;9.40;53.90;;;;;;20702;6848;117460;-75
2023/04/26 02:29:56;;;;;;;7.93;5.63;;;9.10;54.40;;;;;;20690;6848;117485;-75
2023/04/26 02:32:21;;;;;;;13.70;6.30;;;8.90;54.90;;;;;;20702;6848;117250;-75
2023/04/26 02:34:47;;;;;;;316.38;15.55;;;8.70;55.20;;;;;;20498;6848;308128;-75
2023/04/26 02:37:12;;;;;;;542.83;18.95;;;8.90;55.70;;;;;;20488;6848;337926;-75
2023/04/26 02:39:38;;;;;;;118.28;10.68;;;9.20;55.90;;;;;;20708;6846;117814;-75
2023/04/26 02:42:04;;;;;;;65.35;10.40;;;9.10;55.60;;;;;;20472;6848;344047;-74
2023/04/26 02:44:29;;;;;;;37.97;8.23;;;9.20;56.50;;;;;;20695;6848;117508;-75
2023/04/26 02:46:55;;;;;;;105.15;10.23;;;9.10;56.60;;;;;;20495;6848;312312;-75
2023/04/26 02:49:20;;;;;;;82.18;23.45;;;9.20;56.40;;;;;;20711;6848;117609;-75
2023/04/26 02:51:46;;;;;;;567.87;19.77;;;9.20;56.60;;;;;;20503;6848;279569;-75
2023/04/26 02:54:12;;;;;;;102.22;10.27;;;9.30;56.40;;;;;;20691;6848;117764;-75
2023/04/26 02:56:37;;;;;;;13.53;9.40;;;9.20;56.20;;;;;;20498;6848;278583;-75
2023/04/26 02:59:03;;;;;;;9.50;8.80;;;9.30;56.10;;;;;;20498;6848;308190;-75
2023/04/26 03:01:28;;;;;;;131.80;11.77;;;9.50;55.00;;;;;;20495;6848;280519;-75
2023/04/26 03:03:55;;;;;;;122.47;10.93;;;9.40;54.10;;;;;;20693;6848;117763;-75
2023/04/26 03:06:20;;;;;;;24.00;8.10;;;9.40;54.10;;;;;;20705;6848;117614;-75
2023/04/26 03:08:46;;;;;;;37.13;7.70;;;9.00;54.90;;;;;;20709;6848;117902;-75
2023/04/26 03:11:12;;;;;;;10.90;9.70;;;8.70;55.80;;;;;;20485;6848;321639;-74
2023/04/26 03:13:37;;;;;;;10.60;9.67;;;8.70;55.80;;;;;;20497;6848;278236;-73
2023/04/26 03:16:03;;;;;;;10.50;9.70;;;9.00;54.90;;;;;;20482;6848;278906;-75
2023/04/26 03:18:29;;;;;;;9.33;8.53;;;9.20;54.10;;;;;;20487;6848;324354;-77
2023/04/26 03:20:54;;;;;;;7.45;6.87;;;9.40;53.70;;;;;;20708;6848;117145;-75
2023/04/26 03:23:23;;;;;;;8.77;7.17;;;9.20;54.20;;;;;;20702;6848;125813;-75
2023/04/26 03:25:46;;;;;;;7.03;6.57;;;8.80;55.00;;;;;;20699;6848;117630;-75
2023/04/26 03:28:12;;;;;;;8.50;7.80;;;8.70;55.40;;;;;;20474;6848;316503;-75
2023/04/26 03:30:37;;;;;;;6.70;6.20;;;8.70;55.40;;;;;;20712;6848;118199;-75
2023/04/26 03:33:03;;;;;;;8.80;8.10;;;8.70;55.60;;;;;;20499;6848;337221;-75
2023/04/26 03:35:28;;;;;;;9.00;8.20;;;8.80;55.40;;;;;;20499;6848;291704;-75
2023/04/26 03:37:54;;;;;;;9.27;8.52;;;9.10;55.20;;;;;;20474;6848;308153;-76
2023/04/26 03:40:19;;;;;;;9.20;8.50;;;9.40;55.10;;;;;;20491;6848;291031;-76
2023/04/26 03:42:45;;;;;;;7.95;7.35;;;9.50;53.40;;;;;;20691;6848;117748;-75
2023/04/26 03:45:11;;;;;;;9.03;8.33;;;9.30;53.60;;;;;;20498;6848;338485;-76
2023/04/26 03:47:36;;;;;;;7.80;7.20;;;9.30;53.30;;;;;;20693;6848;117155;-76
2023/04/26 03:50:02;;;;;;;9.38;8.40;;;9.00;53.60;;;;;;20490;6847;311475;-76
2023/04/26 03:52:27;;;;;;;8.23;7.37;;;9.00;53.40;;;;;;20708;6848;117315;-76
2023/04/26 03:54:53;;;;;;;7.57;6.87;;;8.90;53.70;;;;;;20711;6848;117144;-76
2023/04/26 03:57:18;;;;;;;8.60;7.80;;;8.60;54.40;;;;;;20493;6848;312736;-75
2023/04/26 03:59:45;;;;;;;9.57;8.77;;;9.00;53.90;;;;;;20498;6848;311975;-76
2023/04/26 04:02:10;;;;;;;8.07;7.43;;;8.90;53.90;;;;;;20690;6848;117010;-76
2023/04/26 04:04:36;;;;;;;8.13;7.40;;;8.80;53.90;;;;;;20710;6848;118090;-76
2023/04/26 04:07:01;;;;;;;9.63;8.83;;;8.50;54.50;;;;;;20496;6848;308529;-75
2023/04/26 04:09:28;;;;;;;11.30;7.73;;;8.50;54.20;;;;;;20705;6848;117389;-75
2023/04/26 04:11:53;;;;;;;8.20;7.57;;;8.50;54.30;;;;;;20688;6848;117287;-76
2023/04/26 04:14:20;;;;;;;7.90;7.20;;;8.20;54.90;;;;;;20707;6848;117095;-75
2023/04/26 04:16:47;;;;;;;8.82;8.13;;;8.20;56.20;;;;;;20503;6848;316369;-75
2023/04/26 04:19:12;;;;;;;10.00;9.20;;;8.20;56.20;;;;;;20493;6848;308514;-76
2023/04/26 04:21:39;;;;;;;9.70;8.70;;;8.60;55.80;;;;;;20708;6848;117928;-75
2023/04/26 04:24:04;;;;;;;9.53;8.00;;;8.60;55.80;;;;;;20684;6848;117524;-73
2023/04/26 04:26:30;;;;;;;12.13;9.50;;;8.40;56.20;;;;;;20485;6848;326760;-71
2023/04/26 04:28:56;;;;;;;11.30;9.52;;;8.60;56.50;;;;;;20494;6848;309083;-72
2023/04/26 04:31:22;;;;;;;35.83;9.13;;;8.90;56.20;;;;;;20698;6848;117574;-72
2023/04/26 04:33:47;;;;;;;183.83;13.43;;;8.90;55.90;;;;;;20491;6848;309029;-75
2023/04/26 04:36:15;;;;;;;123.53;11.90;;;9.00;55.10;;;;;;20484;6848;303227;-75
2023/04/26 04:38:39;;;;;;;82.35;11.40;;;9.30;54.50;;;;;;20495;6848;309250;-73
2023/04/26 04:41:04;;;;;;;33.33;8.87;;;9.50;53.40;;;;;;20714;6848;117652;-72
2023/04/26 04:43:30;;;;;;;8.00;7.40;;;9.30;53.70;;;;;;20715;6848;121461;-71
2023/04/26 04:45:55;;;;;;;7.55;6.85;;;8.90;54.40;;;;;;20682;6848;121991;-71
2023/04/26 04:48:21;;;;;;;9.70;9.10;;;8.60;55.30;;;;;;20502;6848;284673;-71
2023/04/26 04:50:46;;;;;;;11.10;10.23;;;8.80;55.70;;;;;;20495;6848;313032;-73
2023/04/26 04:53:13;;;;;;;9.27;8.60;;;9.10;55.20;;;;;;20723;6848;67120;-72
2023/04/26 04:55:41;;;;;;;9.23;8.43;;;9.10;55.10;;;;;;20700;6848;116760;-72
2023/04/26 04:58:07;;;;;;;8.90;8.13;;;8.90;55.70;;;;;;20684;6848;118265;-74
2023/04/26 05:00:33;;;;;;;11.93;10.83;;;8.60;57.10;;;;;;20702;6848;117258;-75
2023/04/26 05:02:59;;;;;;;15.43;14.23;;;8.60;57.10;;;;;;20483;6847;279577;-75
2023/04/26 05:05:24;;;;;;;12.73;11.43;;;8.80;57.00;;;;;;20700;6848;117629;-72
2023/04/26 05:07:50;;;;;;;15.53;12.83;;;9.00;56.90;;;;;;20498;6848;285723;-72
2023/04/26 05:10:15;;;;;;;19.40;9.70;;;9.20;56.10;;;;;;20476;6848;308256;-73
2023/04/26 05:12:41;;;;;;;88.20;10.77;;;9.50;55.40;;;;;;20489;6848;308576;-73
2023/04/26 05:15:07;;;;;;;13.27;7.15;;;9.80;54.50;;;;;;20702;6848;117344;-71
2023/04/26 05:17:32;;;;;;;32.43;8.63;;;9.70;54.70;;;;;;20472;6848;313092;-77
2023/04/26 05:19:58;;;;;;;11.63;8.30;;;9.70;54.70;;;;;;20460;6848;300337;-73
2023/04/26 05:22:23;;;;;;;13.30;7.32;;;9.90;54.50;;;;;;20682;6848;114998;-76
2023/04/26 05:24:49;;;;;;;19.57;6.67;;;9.80;54.90;;;;;;20709;6848;117186;-78
2023/04/26 05:27:14;;;;;;;136.67;9.03;;;9.60;55.70;;;;;;20712;6848;118008;-79
2023/04/26 05:29:40;;;;;;;39.53;7.40;;;9.40;57.30;;;;;;20711;6848;117654;-79
2023/04/26 05:32:06;;;;;;;150.40;10.73;;;9.30;57.50;;;;;;20690;6848;123552;-79
2023/04/26 05:34:32;;;;;;;103.80;9.57;;;9.10;57.70;;;;;;20715;6848;117349;-79
2023/04/26 05:36:57;;;;;;;153.13;10.73;;;9.00;57.60;;;;;;20713;6848;117343;-79
2023/04/26 05:39:24;;;;;;;311.67;14.67;;;9.00;58.30;;;;;;20708;6848;117580;-74
2023/04/26 05:41:51;;;;;;;245.47;14.47;;;9.00;58.30;;;;;;20494;6848;283404;-73
2023/04/26 05:44:16;;;;;;;222.65;13.75;;;9.30;57.70;;;;;;20490;6848;308113;-73
2023/04/26 05:46:42;;;;;;;78.57;9.40;;;9.70;56.20;;;;;;20709;6848;118198;-73
2023/04/26 05:49:08;;;;;;;210.73;13.57;;;9.90;55.70;;;;;;20496;6848;313247;-71
2023/04/26 05:51:54;;;;;;;29.23;8.67;;;9.90;55.70;;;;;;20710;6848;117443;-71
2023/04/26 05:54:29;;;;;;;8.30;7.40;;;9.90;56.00;;;;;;20847;6749;117301;-73
2023/04/26 05:57:06;;;;;;;8.60;7.80;;;9.60;57.20;;;;;;20912;6731;122524;-73
2023/04/26 05:59:43;;;;;;;8.67;7.90;;;9.60;57.20;;;;;;20865;6743;117726;-73
2023/04/26 06:02:18;;;;;;;8.40;7.50;;;9.50;57.70;;;;;;20797;6728;118647;-73
2023/04/26 06:04:54;;;;;;;10.63;9.85;;;9.40;58.00;;;;;;20585;6765;335336;-73
2023/04/26 06:07:30;;;;;;;9.40;8.60;;;9.70;55.80;;;;;;20908;6728;116804;-73
2023/04/26 06:10:06;;;;;;;10.52;9.73;;;9.80;56.00;;;;;;20636;6736;304668;-73
2023/04/26 06:12:41;;;;;;;9.13;8.33;;;10.10;53.40;;;;;;20696;6762;118004;-73
2023/04/26 06:15:16;;;;;;;9.40;8.33;;;10.10;53.60;;;;;;20932;6729;116923;-72
2023/04/26 06:17:53;;;;;;;8.97;8.10;;;10.00;54.30;;;;;;20881;6729;117242;-73
2023/04/26 06:20:29;;;;;;;10.52;9.43;;;9.80;55.80;;;;;;20731;6714;334618;-74
2023/04/26 06:23:04;;;;;;;9.50;8.60;;;10.10;53.40;;;;;;20801;6714;117593;-73
2023/04/26 06:25:44;;;;;;;10.40;9.57;;;10.30;54.20;;;;;;20725;6714;309541;-77
2023/04/26 06:28:17;;;;;;;9.70;8.83;;;10.60;53.20;;;;;;20893;6729;120170;-72
2023/04/26 06:30:53;;;;;;;8.97;8.20;;;10.80;53.60;;;;;;20946;6714;116889;-70
2023/04/26 06:33:28;;;;;;;8.80;7.97;;;10.80;54.10;;;;;;20723;6729;117122;-70
2023/04/26 06:36:06;;;;;;;10.67;9.63;;;10.70;54.00;;;;;;20670;6729;281468;-70
2023/04/26 06:38:41;;;;;;;10.80;9.93;;;11.00;53.10;;;;;;20746;6714;275282;-72
2023/04/26 06:41:16;;;;;;;8.70;8.10;;;11.40;51.50;;;;;;20958;6714;117879;-72
2023/04/26 06:43:52;;;;;;;9.53;8.63;;;11.50;52.10;;;;;;20929;6714;121711;-71
2023/04/26 06:46:28;;;;;;;10.73;9.73;;;11.50;51.30;;;;;;20662;6746;277453;-69
2023/04/26 06:49:04;;;;;;;8.93;8.03;;;11.50;51.30;;;;;;20915;6729;116914;-69
2023/04/26 06:51:40;;;;;;;10.20;8.20;;;11.50;51.80;;;;;;20874;6730;116853;-69
2023/04/26 06:54:15;;;;;;;8.63;7.87;;;11.40;52.50;;;;;;20938;6715;117583;-69
2023/04/26 06:56:51;;;;;;;9.27;8.07;;;11.20;52.90;;;;;;20910;6730;117104;-70
2023/04/26 06:59:26;;;;;;;9.50;7.50;;;11.10;53.30;;;;;;20851;6744;117091;-69
2023/04/26 07:02:03;;;;;;;10.38;9.30;;;11.10;53.80;;;;;;20615;6729;278118;-72
2023/04/26 07:04:38;;;;;;;10.07;7.87;;;11.40;51.10;;;;;;20910;6729;120469;-71
2023/04/26 07:07:15;;;;;;;12.63;11.45;;;11.60;51.50;;;;;;20738;6729;275687;-70
2023/04/26 07:09:50;;;;;;;9.53;8.70;;;11.90;49.60;;;;;;20920;6728;117199;-70
2023/04/26 07:12:25;;;;;;;9.88;9.05;;;12.10;50.00;;;;;;20624;6729;307489;-70
2023/04/26 07:15:01;;;;;;;10.77;9.73;;;12.30;48.70;;;;;;20753;6729;276583;-70
2023/04/26 07:17:36;;;;;;;9.15;8.35;;;12.80;47.80;;;;;;20693;6729;339066;-71
2023/04/26 07:20:14;;;;;;;14.00;12.60;;;13.20;46.60;;;;;;20940;6715;117939;-71
2023/04/26 07:22:47;;;;;;;10.20;9.23;;;13.10;47.60;;;;;;20620;6729;307115;-70
2023/04/26 07:25:23;;;;;;;9.93;7.43;;;13.30;46.20;;;;;;20846;6745;117134;-72
2023/04/26 07:27:59;;;;;;;6.20;5.60;;;13.30;47.50;;;;;;20836;6744;117291;-72
2023/04/26 07:30:35;;;;;;;8.00;6.57;;;13.10;47.70;;;;;;20907;6731;117084;-71
2023/04/26 07:33:10;;;;;;;9.23;7.20;;;13.00;48.30;;;;;;20753;6746;117629;-71
2023/04/26 07:35:45;;;;;;;7.30;5.47;;;13.00;48.40;;;;;;20921;6744;117268;-72
2023/04/26 07:38:22;;;;;;;7.50;6.25;;;13.30;41.60;;;;;;20693;6729;314236;-72
2023/04/26 07:41:03;;;;;;;8.43;7.73;;;13.20;41.50;;;;;;20651;6744;327651;-72
2023/04/26 07:43:33;;;;;;;12.70;10.13;;;13.70;42.30;;;;;;20782;6729;117665;-72
2023/04/26 07:46:08;;;;;;;8.20;7.20;;;13.80;43.70;;;;;;20611;6744;306733;-72
2023/04/26 07:48:44;;;;;;;7.93;7.20;;;14.00;42.00;;;;;;20690;6734;299761;-72
2023/04/26 07:51:20;;;;;;;9.32;6.82;;;14.40;40.00;;;;;;20684;6729;321061;-72
2023/04/26 07:53:55;;;;;;;6.87;5.90;;;14.60;39.30;;;;;;20913;6725;122911;-72
2023/04/26 07:56:31;;;;;;;5.27;4.80;;;14.60;41.10;;;;;;20914;6729;117648;-75
2023/04/26 07:59:07;;;;;;;5.73;5.13;;;14.40;42.10;;;;;;20958;6729;116749;-74
2023/04/26 08:01:42;;;;;;;6.90;6.12;;;14.20;42.30;;;;;;20665;6728;278617;-71
2023/04/26 08:04:17;;;;;;;6.97;6.03;;;14.40;38.90;;;;;;20730;6715;280657;-72
2023/04/26 08:06:53;;;;;;;6.37;5.70;;;14.90;40.60;;;;;;20694;6730;325712;-72
2023/04/26 08:09:29;;;;;;;7.77;4.87;;;15.40;41.00;;;;;;20947;6715;122934;-73
2023/04/26 08:12:04;;;;;;;6.17;5.37;;;15.40;41.20;;;;;;20829;6715;117965;-73
2023/04/26 08:14:40;;;;;;;6.23;5.63;;;15.20;41.40;;;;;;20897;6730;116914;-72
2023/04/26 08:17:15;;;;;;;7.35;6.07;;;15.00;41.90;;;;;;20725;6715;304594;-72
2023/04/26 08:19:51;;;;;;;8.47;5.63;;;15.00;39.50;;;;;;20902;6729;123320;-75
2023/04/26 08:22:27;;;;;;;6.00;5.50;;;15.00;41.00;;;;;;20578;6729;306465;-72
2023/04/26 08:25:03;;;;;;;5.40;4.90;;;15.10;38.00;;;;;;20852;6744;117061;-73
2023/04/26 08:27:41;;;;;;;6.30;4.40;;;15.20;39.70;;;;;;20897;6729;117274;-73
2023/04/26 08:30:14;;;;;;;6.03;4.85;;;15.00;40.40;;;;;;20666;6729;335975;-73
2023/04/26 08:32:50;;;;;;;5.37;4.87;;;15.50;35.90;;;;;;20569;6731;307492;-73
2023/04/26 08:35:26;;;;;;;5.97;4.77;;;15.50;35.30;;;;;;20920;6730;117317;-72
2023/04/26 08:38:04;;;;;;;5.90;4.33;;;15.40;37.50;;;;;;20897;6730;117916;-71
2023/04/26 08:40:37;;;;;;;4.13;3.60;;;15.30;38.60;;;;;;20916;6744;117063;-71
2023/04/26 08:43:12;;;;;;;6.87;4.10;;;15.20;39.00;;;;;;20764;6744;117194;-72
2023/04/26 08:45:48;;;;;;;4.47;4.07;;;15.20;39.70;;;;;;20909;6744;118089;-73
2023/04/26 08:48:24;;;;;;;5.57;4.03;;;15.30;40.30;;;;;;20897;6729;116829;-72
2023/04/26 08:50:59;;;;;;;5.93;4.50;;;15.30;39.70;;;;;;20694;6729;304188;-72
2023/04/26 08:53:35;;;;;;;4.60;4.20;;;16.10;35.70;;;;;;20519;6785;307555;-72
2023/04/26 08:56:11;;;;;;;6.13;4.30;;;16.10;35.70;;;;;;20898;6744;179409;-72
2023/04/26 08:58:46;;;;;;;7.25;4.87;;;16.30;37.20;;;;;;20694;6729;306003;-73
2023/04/26 09:01:22;;;;;;;6.10;4.30;;;16.60;33.60;;;;;;20618;6744;277525;-72
2023/04/26 09:03:57;;;;;;;5.22;4.30;;;16.90;33.70;;;;;;20712;6714;275659;-72
2023/04/26 09:06:33;;;;;;;4.53;4.13;;;17.30;34.30;;;;;;20863;6746;117605;-72
2023/04/26 09:09:09;;;;;;;5.50;3.40;;;17.30;36.00;;;;;;20913;6729;117382;-72
2023/04/26 09:11:58;;;;;;;26.63;23.80;;;17.20;36.90;;;;;;20840;6727;117280;-71
2023/04/26 09:14:33;;;;;;;7.27;3.53;;;17.10;37.30;;;;;;20880;6742;117706;-71
2023/04/26 09:17:29;;;;;;;3.97;3.53;;;16.90;37.60;;;;;;20954;6715;116887;-71
2023/04/26 09:20:17;;;;;;;6.00;4.30;;;16.60;37.60;;;;;;20720;6715;309835;-73
2023/04/26 09:23:03;;;;;;;5.40;4.60;;;16.70;35.60;;;;;;20611;6715;306958;-73
2023/04/26 09:25:38;;;;;;;5.93;4.40;;;16.90;32.60;;;;;;20737;6715;275698;-71
2023/04/26 09:28:20;;;;;;;4.63;3.70;;;17.10;33.20;;;;;;20946;6715;117236;-72
2023/04/26 09:30:55;;;;;;;4.27;3.93;;;17.00;34.90;;;;;;20967;6715;116876;-73
2023/04/26 09:33:31;;;;;;;3.93;3.63;;;16.70;35.90;;;;;;20740;6715;117334;-72
2023/04/26 09:36:10;;;;;;;5.23;4.10;;;16.70;37.30;;;;;;20691;6729;283408;-73
2023/04/26 09:38:45;;;;;;;4.50;4.10;;;17.00;31.90;;;;;;20686;6729;305893;-73
2023/04/26 09:41:21;;;;;;;4.53;3.80;;;17.40;31.40;;;;;;20684;6729;281248;-73
2023/04/26 09:43:59;;;;;;;6.23;4.00;;;17.90;29.80;;;;;;20678;6730;319100;-73
2023/04/26 09:46:34;;;;;;;5.10;3.60;;;17.90;29.80;;;;;;20732;6734;305237;-72
2023/04/26 09:49:10;;;;;;;4.63;3.50;;;17.90;29.30;;;;;;20899;6735;117698;-75
2023/04/26 09:51:46;;;;;;;4.60;3.97;;;17.70;31.40;;;;;;20592;6744;312622;-73
2023/04/26 09:54:21;;;;;;;4.00;3.60;;;17.70;29.70;;;;;;20658;6789;305483;-73
2023/04/26 09:57:01;;;;;;;4.37;3.87;;;18.20;30.20;;;;;;20617;6805;307083;-72
2023/04/26 09:59:43;;;;;;;4.33;4.00;;;18.20;30.00;;;;;;20916;6729;116913;-73
2023/04/26 10:02:18;;;;;;;3.83;3.17;;;18.10;31.70;;;;;;20773;6728;117408;-75
2023/04/26 10:04:54;;;;;;;3.67;3.33;;;17.80;33.20;;;;;;20900;6729;117341;-73
2023/04/26 10:07:30;;;;;;;4.07;3.67;;;17.70;34.50;;;;;;20727;6714;305387;-72
2023/04/26 10:10:05;;;;;;;5.27;3.83;;;17.80;29.90;;;;;;20729;6714;275726;-73
2023/04/26 10:12:41;;;;;;;4.90;3.83;;;18.00;30.30;;;;;;20631;6714;277547;-72
2023/04/26 10:15:16;;;;;;;3.93;3.60;;;18.30;31.40;;;;;;20898;6729;116849;-71
2023/04/26 10:17:52;;;;;;;3.43;3.13;;;18.20;32.30;;;;;;20928;6729;116965;-72
2023/04/26 10:20:27;;;;;;;3.47;3.27;;;17.90;33.70;;;;;;20914;6729;117608;-72
2023/04/26 10:23:03;;;;;;;3.70;3.40;;;17.70;35.10;;;;;;20720;6745;117745;-72
2023/04/26 10:25:39;;;;;;;3.50;3.20;;;17.60;35.40;;;;;;20898;6729;116992;-72
2023/04/26 10:28:15;;;;;;;4.60;3.85;;;17.70;32.70;;;;;;20675;6729;275946;-73
2023/04/26 10:30:57;;;;;;;4.87;3.67;;;17.70;32.40;;;;;;20903;6729;116862;-73
2023/04/26 10:33:32;;;;;;;4.17;3.50;;;17.90;34.30;;;;;;20735;6731;118220;-72
2023/04/26 10:36:11;;;;;;;3.97;3.23;;;17.80;35.40;;;;;;20895;6730;117223;-72
2023/04/26 10:39:09;;;;;;;5.07;3.63;;;17.80;35.40;;;;;;20852;6744;117410;-72
2023/04/26 10:41:45;;;;;;;5.12;3.90;;;17.70;34.80;;;;;;20610;6729;335874;-72
2023/04/26 10:44:41;;;;;;;4.90;3.60;;;17.80;30.70;;;;;;20878;6729;117442;-72
2023/04/26 10:47:30;;;;;;;3.67;2.80;;;17.80;33.00;;;;;;20944;6715;117445;-72
2023/04/26 10:50:11;;;;;;;4.03;3.37;;;17.80;34.50;;;;;;20890;6731;132574;-72
2023/04/26 10:53:04;;;;;;;3.70;3.33;;;17.90;32.40;;;;;;20626;6715;277421;-72
2023/04/26 10:55:40;;;;;;;5.37;3.87;;;17.90;32.40;;;;;;20695;6729;296308;-72
2023/04/26 10:58:25;;;;;;;3.93;3.60;;;18.40;32.40;;;;;;20875;6744;116780;-72
2023/04/26 11:01:15;;;;;;;4.27;3.60;;;18.50;33.20;;;;;;20886;6729;117290;-71
2023/04/26 11:03:52;;;;;;;5.85;3.97;;;18.30;34.00;;;;;;20684;6729;305496;-71
2023/04/26 11:06:48;;;;;;;4.17;3.53;;;18.40;32.20;;;;;;20696;6731;276924;-71
2023/04/26 11:09:40;;;;;;;4.93;4.57;;;18.70;31.40;;;;;;20695;6729;276652;-70
2023/04/26 11:12:15;;;;;;;3.93;3.53;;;18.70;30.40;;;;;;20564;6729;309630;-70
2023/04/26 11:14:51;;;;;;;3.10;2.72;;;18.80;29.80;;;;;;20679;6744;334912;-69
2023/04/26 11:17:29;;;;;;;3.00;2.70;;;18.80;32.10;;;;;;20703;6729;296058;-68
2023/04/26 11:20:02;;;;;;;3.47;3.20;;;18.80;30.50;;;;;;20624;6729;347106;-68
2023/04/26 11:22:40;;;;;;;3.53;3.20;;;18.80;31.40;;;;;;20521;6746;307316;-68
2023/04/26 11:25:17;;;;;;;3.30;2.97;;;18.80;30.40;;;;;;20940;6714;116802;-68
2023/04/26 11:27:52;;;;;;;4.00;3.65;;;18.60;32.20;;;;;;20647;6729;333896;-73
2023/04/26 11:30:30;;;;;;;3.80;3.30;;;18.60;31.30;;;;;;20742;6714;304956;-70
2023/04/26 11:33:06;;;;;;;4.18;3.40;;;18.80;29.80;;;;;;20587;6714;306395;-69
2023/04/26 11:35:42;;;;;;;4.17;3.00;;;19.00;32.20;;;;;;20736;6714;306284;-69
2023/04/26 11:38:21;;;;;;;4.63;4.20;;;19.00;32.20;;;;;;20725;6715;304521;-70
2023/04/26 11:40:56;;;;;;;2.73;2.40;;;19.20;31.50;;;;;;20952;6715;117260;-71
2023/04/26 11:43:38;;;;;;;3.50;3.20;;;19.10;33.20;;;;;;20565;6715;297799;-71
2023/04/26 11:46:15;;;;;;;3.23;2.73;;;19.10;30.00;;;;;;20938;6715;120083;-71
2023/04/26 11:48:50;;;;;;;4.97;3.30;;;18.80;31.40;;;;;;20738;6715;304763;-71
2023/04/26 11:51:25;;;;;;;3.23;2.93;;;18.70;29.90;;;;;;20928;6715;117204;-70
2023/04/26 11:54:01;;;;;;;5.33;4.90;;;18.50;31.60;;;;;;20660;6731;309293;-70
2023/04/26 11:56:36;;;;;;;3.27;2.63;;;18.50;30.90;;;;;;20915;6728;117073;-71
2023/04/26 11:59:12;;;;;;;3.50;3.20;;;18.40;32.00;;;;;;20681;6735;305439;-70
2023/04/26 12:01:47;;;;;;;4.43;3.10;;;18.50;30.60;;;;;;20632;6735;277886;-70
2023/04/26 12:04:27;;;;;;;3.80;3.50;;;18.70;29.30;;;;;;20681;6729;305622;-69
2023/04/26 12:07:06;;;;;;;4.72;3.42;;;18.80;29.30;;;;;;20636;6744;305215;-69
2023/04/26 12:09:41;;;;;;;2.83;2.63;;;18.90;29.40;;;;;;20847;6751;116988;-69
2023/04/26 12:12:17;;;;;;;4.00;2.83;;;18.70;30.80;;;;;;20748;6748;117282;-69
2023/04/26 12:14:52;;;;;;;4.57;2.90;;;18.30;31.60;;;;;;20865;6741;117867;-69
2023/04/26 12:17:27;;;;;;;3.63;3.33;;;18.10;32.30;;;;;;20914;6727;117339;-69
2023/04/26 12:20:10;;;;;;;4.40;3.10;;;17.90;29.80;;;;;;20640;6742;313931;-69
2023/04/26 12:23:01;;;;;;;3.10;2.90;;;17.80;31.30;;;;;;20728;6739;270012;-70
2023/04/26 12:25:37;;;;;;;3.00;2.80;;;17.80;31.30;;;;;;20876;6742;116856;-70
2023/04/26 12:28:12;;;;;;;4.85;3.40;;;17.40;31.90;;;;;;20672;6729;306506;-70
2023/04/26 12:30:48;;;;;;;6.63;4.77;;;17.40;29.00;;;;;;20691;6729;305585;-68
2023/04/26 12:33:24;;;;;;;4.10;3.40;;;17.60;29.70;;;;;;20419;6748;279568;-69
2023/04/26 12:36:05;;;;;;;3.40;3.00;;;17.70;30.20;;;;;;20866;6743;117722;-71
2023/04/26 12:38:41;;;;;;;3.47;2.87;;;17.60;31.50;;;;;;20887;6742;117143;-70
2023/04/26 12:41:16;;;;;;;4.13;3.37;;;17.30;32.10;;;;;;20880;6742;117484;-72
2023/04/26 12:43:52;;;;;;;3.67;3.47;;;17.00;33.10;;;;;;20836;6748;117488;-72
2023/04/26 12:46:30;;;;;;;4.20;3.70;;;16.90;33.70;;;;;;20695;6744;340651;-70
2023/04/26 12:49:06;;;;;;;4.50;3.80;;;17.20;31.40;;;;;;20698;6744;276925;-70
2023/04/26 12:51:38;;;;;;;4.30;3.58;;;17.60;30.10;;;;;;20662;6729;336509;-70
2023/04/26 12:54:14;;;;;;;4.37;3.67;;;17.80;30.00;;;;;;20945;6729;117349;-71
2023/04/26 12:56:50;;;;;;;3.60;3.30;;;17.80;31.30;;;;;;20918;6728;116945;-71
2023/04/26 12:59:25;;;;;;;4.23;3.37;;;17.60;32.10;;;;;;20960;6729;116897;-70
2023/04/26 13:02:02;;;;;;;3.87;3.50;;;17.40;32.50;;;;;;20619;6730;341547;-71